sensor_id;sensor_type;location;lat;lon;timestamp;P1;durP1;ratioP1;P2;durP2;ratioP2
41687;SDS011;27371;42.686;23.362;2022-08-19T00:03:21;6.55;;;5.20;;
41687;SDS011;27371;42.686;23.362;2022-08-19T00:05:47;8.05;;;4.68;;
41687;SDS011;27371;42.686;23.362;2022-08-19T00:08:13;9.25;;;6.10;;
41687;SDS011;27371;42.686;23.362;2022-08-19T00:10:38;8.95;;;5.10;;
41687;SDS011;27371;42.686;23.362;2022-08-19T00:13:04;6.05;;;4.20;;
41687;SDS011;27371;42.686;23.362;2022-08-19T00:15:29;6.57;;;4.30;;
41687;SDS011;27371;42.686;23.362;2022-08-19T00:17:55;8.88;;;4.90;;
41687;SDS011;27371;42.686;23.362;2022-08-19T00:20:21;8.38;;;4.82;;
41687;SDS011;27371;42.686;23.362;2022-08-19T00:22:47;6.63;;;4.60;;
41687;SDS011;27371;42.686;23.362;2022-08-19T00:25:14;7.03;;;4.85;;
41687;SDS011;27371;42.686;23.362;2022-08-19T00:27:40;8.10;;;4.68;;
41687;SDS011;27371;42.686;23.362;2022-08-19T00:30:06;7.15;;;4.97;;
41687;SDS011;27371;42.686;23.362;2022-08-19T00:32:33;8.57;;;5.88;;
41687;SDS011;27371;42.686;23.362;2022-08-19T00:34:59;7.63;;;5.30;;
41687;SDS011;27371;42.686;23.362;2022-08-19T00:37:26;7.05;;;5.65;;
41687;SDS011;27371;42.686;23.362;2022-08-19T00:39:52;7.25;;;6.07;;
41687;SDS011;27371;42.686;23.362;2022-08-19T00:42:18;10.70;;;6.00;;
41687;SDS011;27371;42.686;23.362;2022-08-19T00:44:45;7.03;;;4.85;;
41687;SDS011;27371;42.686;23.362;2022-08-19T00:47:11;7.88;;;4.75;;
41687;SDS011;27371;42.686;23.362;2022-08-19T00:49:38;5.72;;;4.60;;
41687;SDS011;27371;42.686;23.362;2022-08-19T00:52:12;9.45;;;4.75;;
41687;SDS011;27371;42.686;23.362;2022-08-19T00:54:41;6.00;;;4.70;;
41687;SDS011;27371;42.686;23.362;2022-08-19T00:57:10;8.05;;;4.90;;
41687;SDS011;27371;42.686;23.362;2022-08-19T00:59:40;7.35;;;4.85;;
41687;SDS011;27371;42.686;23.362;2022-08-19T01:02:07;5.80;;;4.20;;
41687;SDS011;27371;42.686;23.362;2022-08-19T01:04:33;7.57;;;4.63;;
41687;SDS011;27371;42.686;23.362;2022-08-19T01:06:59;5.22;;;4.50;;
41687;SDS011;27371;42.686;23.362;2022-08-19T01:09:26;7.72;;;4.93;;
41687;SDS011;27371;42.686;23.362;2022-08-19T01:11:52;9.25;;;4.45;;
41687;SDS011;27371;42.686;23.362;2022-08-19T01:14:17;7.43;;;4.63;;
41687;SDS011;27371;42.686;23.362;2022-08-19T01:16:44;8.00;;;4.20;;
41687;SDS011;27371;42.686;23.362;2022-08-19T01:19:24;5.72;;;4.25;;
41687;SDS011;27371;42.686;23.362;2022-08-19T01:22:04;5.05;;;4.50;;
41687;SDS011;27371;42.686;23.362;2022-08-19T01:24:43;6.22;;;4.22;;
41687;SDS011;27371;42.686;23.362;2022-08-19T01:27:08;6.38;;;5.10;;
41687;SDS011;27371;42.686;23.362;2022-08-19T01:29:34;9.77;;;5.07;;
41687;SDS011;27371;42.686;23.362;2022-08-19T01:32:04;10.40;;;5.20;;
41687;SDS011;27371;42.686;23.362;2022-08-19T01:34:30;7.13;;;4.57;;
41687;SDS011;27371;42.686;23.362;2022-08-19T01:36:56;6.50;;;4.40;;
41687;SDS011;27371;42.686;23.362;2022-08-19T01:39:23;7.40;;;4.45;;
41687;SDS011;27371;42.686;23.362;2022-08-19T01:41:49;10.25;;;4.55;;
41687;SDS011;27371;42.686;23.362;2022-08-19T01:44:17;5.47;;;4.50;;
41687;SDS011;27371;42.686;23.362;2022-08-19T01:46:48;8.60;;;4.90;;
41687;SDS011;27371;42.686;23.362;2022-08-19T01:49:14;8.02;;;4.30;;
41687;SDS011;27371;42.686;23.362;2022-08-19T01:51:41;7.25;;;4.22;;
41687;SDS011;27371;42.686;23.362;2022-08-19T01:54:11;8.00;;;4.53;;
41687;SDS011;27371;42.686;23.362;2022-08-19T01:56:38;5.47;;;4.60;;
41687;SDS011;27371;42.686;23.362;2022-08-19T01:59:09;9.50;;;4.90;;
41687;SDS011;27371;42.686;23.362;2022-08-19T02:01:36;6.18;;;4.93;;
41687;SDS011;27371;42.686;23.362;2022-08-19T02:04:02;5.50;;;4.10;;
41687;SDS011;27371;42.686;23.362;2022-08-19T02:06:28;6.63;;;4.32;;
41687;SDS011;27371;42.686;23.362;2022-08-19T02:08:54;6.22;;;4.22;;
41687;SDS011;27371;42.686;23.362;2022-08-19T02:11:20;4.63;;;4.22;;
41687;SDS011;27371;42.686;23.362;2022-08-19T02:13:53;8.07;;;4.88;;
41687;SDS011;27371;42.686;23.362;2022-08-19T02:16:19;5.32;;;4.80;;
41687;SDS011;27371;42.686;23.362;2022-08-19T02:18:45;7.15;;;5.00;;
41687;SDS011;27371;42.686;23.362;2022-08-19T02:21:13;6.28;;;4.55;;
41687;SDS011;27371;42.686;23.362;2022-08-19T02:23:40;5.03;;;4.13;;
41687;SDS011;27371;42.686;23.362;2022-08-19T02:26:06;13.40;;;5.00;;
41687;SDS011;27371;42.686;23.362;2022-08-19T02:28:31;6.18;;;4.40;;
41687;SDS011;27371;42.686;23.362;2022-08-19T02:30:58;9.00;;;4.82;;
41687;SDS011;27371;42.686;23.362;2022-08-19T02:33:25;6.05;;;4.43;;
41687;SDS011;27371;42.686;23.362;2022-08-19T02:35:51;9.35;;;4.35;;
41687;SDS011;27371;42.686;23.362;2022-08-19T02:38:17;4.50;;;4.00;;
41687;SDS011;27371;42.686;23.362;2022-08-19T02:40:56;6.20;;;4.68;;
41687;SDS011;27371;42.686;23.362;2022-08-19T02:43:24;7.30;;;4.78;;
41687;SDS011;27371;42.686;23.362;2022-08-19T02:45:51;7.80;;;5.00;;
41687;SDS011;27371;42.686;23.362;2022-08-19T02:48:18;13.05;;;5.53;;
41687;SDS011;27371;42.686;23.362;2022-08-19T02:50:45;7.75;;;5.20;;
41687;SDS011;27371;42.686;23.362;2022-08-19T02:53:11;6.57;;;5.20;;
41687;SDS011;27371;42.686;23.362;2022-08-19T02:55:46;6.97;;;4.80;;
41687;SDS011;27371;42.686;23.362;2022-08-19T02:58:12;7.30;;;5.10;;
41687;SDS011;27371;42.686;23.362;2022-08-19T03:00:46;5.93;;;4.95;;
41687;SDS011;27371;42.686;23.362;2022-08-19T03:03:15;9.73;;;5.10;;
41687;SDS011;27371;42.686;23.362;2022-08-19T03:05:42;9.85;;;7.55;;
41687;SDS011;27371;42.686;23.362;2022-08-19T03:08:08;9.00;;;6.13;;
41687;SDS011;27371;42.686;23.362;2022-08-19T03:10:44;8.43;;;5.85;;
41687;SDS011;27371;42.686;23.362;2022-08-19T03:13:12;10.32;;;5.50;;
41687;SDS011;27371;42.686;23.362;2022-08-19T03:15:41;10.88;;;5.55;;
41687;SDS011;27371;42.686;23.362;2022-08-19T03:18:08;7.10;;;4.95;;
41687;SDS011;27371;42.686;23.362;2022-08-19T03:20:33;7.90;;;5.63;;
41687;SDS011;27371;42.686;23.362;2022-08-19T03:22:59;10.15;;;5.60;;
41687;SDS011;27371;42.686;23.362;2022-08-19T03:25:24;9.70;;;5.05;;
41687;SDS011;27371;42.686;23.362;2022-08-19T03:27:50;8.63;;;5.43;;
41687;SDS011;27371;42.686;23.362;2022-08-19T03:30:15;10.20;;;4.93;;
41687;SDS011;27371;42.686;23.362;2022-08-19T03:32:41;11.40;;;5.88;;
41687;SDS011;27371;42.686;23.362;2022-08-19T03:35:06;7.07;;;4.82;;
41687;SDS011;27371;42.686;23.362;2022-08-19T03:37:32;6.40;;;5.25;;
41687;SDS011;27371;42.686;23.362;2022-08-19T03:39:57;10.57;;;5.35;;
41687;SDS011;27371;42.686;23.362;2022-08-19T03:42:23;12.93;;;5.72;;
41687;SDS011;27371;42.686;23.362;2022-08-19T03:44:51;7.80;;;5.53;;
41687;SDS011;27371;42.686;23.362;2022-08-19T03:47:17;8.45;;;5.05;;
41687;SDS011;27371;42.686;23.362;2022-08-19T03:49:43;6.80;;;6.07;;
41687;SDS011;27371;42.686;23.362;2022-08-19T03:52:09;14.48;;;5.20;;
41687;SDS011;27371;42.686;23.362;2022-08-19T03:54:35;9.05;;;5.10;;
41687;SDS011;27371;42.686;23.362;2022-08-19T03:57:03;9.60;;;5.70;;
41687;SDS011;27371;42.686;23.362;2022-08-19T03:59:30;8.50;;;5.55;;
41687;SDS011;27371;42.686;23.362;2022-08-19T04:01:58;8.00;;;5.15;;
41687;SDS011;27371;42.686;23.362;2022-08-19T04:04:26;6.03;;;5.32;;
41687;SDS011;27371;42.686;23.362;2022-08-19T04:06:52;12.93;;;6.22;;
41687;SDS011;27371;42.686;23.362;2022-08-19T04:09:19;10.25;;;5.85;;
41687;SDS011;27371;42.686;23.362;2022-08-19T04:11:46;11.45;;;6.43;;
41687;SDS011;27371;42.686;23.362;2022-08-19T04:14:15;9.40;;;5.80;;
41687;SDS011;27371;42.686;23.362;2022-08-19T04:16:43;8.52;;;5.78;;
41687;SDS011;27371;42.686;23.362;2022-08-19T04:19:09;15.35;;;8.35;;
41687;SDS011;27371;42.686;23.362;2022-08-19T04:21:36;10.27;;;7.78;;
41687;SDS011;27371;42.686;23.362;2022-08-19T04:24:01;10.10;;;6.22;;
41687;SDS011;27371;42.686;23.362;2022-08-19T04:26:29;7.53;;;5.63;;
41687;SDS011;27371;42.686;23.362;2022-08-19T04:29:00;11.63;;;5.38;;
41687;SDS011;27371;42.686;23.362;2022-08-19T04:31:28;7.65;;;5.25;;
41687;SDS011;27371;42.686;23.362;2022-08-19T04:33:56;10.27;;;5.55;;
41687;SDS011;27371;42.686;23.362;2022-08-19T04:36:25;11.65;;;7.20;;
41687;SDS011;27371;42.686;23.362;2022-08-19T04:38:55;19.42;;;7.78;;
41687;SDS011;27371;42.686;23.362;2022-08-19T04:41:23;13.75;;;7.47;;
41687;SDS011;27371;42.686;23.362;2022-08-19T04:44:08;12.95;;;9.95;;
41687;SDS011;27371;42.686;23.362;2022-08-19T04:46:34;19.05;;;10.70;;
41687;SDS011;27371;42.686;23.362;2022-08-19T04:49:00;19.10;;;9.88;;
41687;SDS011;27371;42.686;23.362;2022-08-19T04:51:27;14.65;;;9.32;;
41687;SDS011;27371;42.686;23.362;2022-08-19T04:53:56;16.63;;;10.07;;
41687;SDS011;27371;42.686;23.362;2022-08-19T04:56:22;16.55;;;9.73;;
41687;SDS011;27371;42.686;23.362;2022-08-19T04:58:51;17.42;;;9.23;;
41687;SDS011;27371;42.686;23.362;2022-08-19T05:01:19;16.65;;;10.20;;
41687;SDS011;27371;42.686;23.362;2022-08-19T05:03:47;11.30;;;8.73;;
41687;SDS011;27371;42.686;23.362;2022-08-19T05:06:14;15.32;;;8.15;;
41687;SDS011;27371;42.686;23.362;2022-08-19T05:08:42;14.20;;;7.78;;
41687;SDS011;27371;42.686;23.362;2022-08-19T05:13:36;10.38;;;7.05;;
41687;SDS011;27371;42.686;23.362;2022-08-19T05:16:01;13.50;;;6.45;;
41687;SDS011;27371;42.686;23.362;2022-08-19T05:18:27;13.43;;;6.40;;
41687;SDS011;27371;42.686;23.362;2022-08-19T05:21:12;9.27;;;7.30;;
41687;SDS011;27371;42.686;23.362;2022-08-19T05:23:58;12.15;;;6.50;;
41687;SDS011;27371;42.686;23.362;2022-08-19T05:26:24;15.00;;;7.10;;
41687;SDS011;27371;42.686;23.362;2022-08-19T05:28:53;8.70;;;6.07;;
41687;SDS011;27371;42.686;23.362;2022-08-19T05:31:19;11.20;;;5.38;;
41687;SDS011;27371;42.686;23.362;2022-08-19T05:33:45;12.43;;;5.95;;
41687;SDS011;27371;42.686;23.362;2022-08-19T05:36:11;9.68;;;5.28;;
41687;SDS011;27371;42.686;23.362;2022-08-19T05:38:37;8.60;;;5.07;;
41687;SDS011;27371;42.686;23.362;2022-08-19T05:41:09;8.80;;;5.35;;
41687;SDS011;27371;42.686;23.362;2022-08-19T05:43:36;7.85;;;5.32;;
41687;SDS011;27371;42.686;23.362;2022-08-19T05:46:02;8.02;;;5.07;;
41687;SDS011;27371;42.686;23.362;2022-08-19T05:48:32;9.75;;;5.20;;
41687;SDS011;27371;42.686;23.362;2022-08-19T05:51:02;9.00;;;5.30;;
41687;SDS011;27371;42.686;23.362;2022-08-19T05:53:30;14.98;;;7.82;;
41687;SDS011;27371;42.686;23.362;2022-08-19T05:55:55;6.97;;;5.72;;
41687;SDS011;27371;42.686;23.362;2022-08-19T05:58:21;15.00;;;5.25;;
41687;SDS011;27371;42.686;23.362;2022-08-19T06:00:46;8.68;;;5.65;;
41687;SDS011;27371;42.686;23.362;2022-08-19T06:03:12;15.88;;;5.72;;
41687;SDS011;27371;42.686;23.362;2022-08-19T06:05:37;13.77;;;6.22;;
41687;SDS011;27371;42.686;23.362;2022-08-19T06:08:03;13.50;;;5.78;;
41687;SDS011;27371;42.686;23.362;2022-08-19T06:10:29;10.45;;;5.60;;
41687;SDS011;27371;42.686;23.362;2022-08-19T06:12:55;16.60;;;6.05;;
41687;SDS011;27371;42.686;23.362;2022-08-19T06:15:21;11.15;;;5.72;;
41687;SDS011;27371;42.686;23.362;2022-08-19T06:17:50;12.88;;;5.47;;
41687;SDS011;27371;42.686;23.362;2022-08-19T06:20:15;9.30;;;5.25;;
41687;SDS011;27371;42.686;23.362;2022-08-19T06:22:43;7.18;;;4.72;;
41687;SDS011;27371;42.686;23.362;2022-08-19T06:25:11;9.15;;;5.18;;
41687;SDS011;27371;42.686;23.362;2022-08-19T06:27:39;10.05;;;5.10;;
41687;SDS011;27371;42.686;23.362;2022-08-19T06:30:05;9.23;;;5.05;;
41687;SDS011;27371;42.686;23.362;2022-08-19T06:32:31;11.25;;;4.63;;
41687;SDS011;27371;42.686;23.362;2022-08-19T06:34:57;10.07;;;4.57;;
41687;SDS011;27371;42.686;23.362;2022-08-19T06:37:23;7.68;;;4.40;;
41687;SDS011;27371;42.686;23.362;2022-08-19T06:39:49;10.80;;;4.63;;
41687;SDS011;27371;42.686;23.362;2022-08-19T06:42:15;6.22;;;4.30;;
41687;SDS011;27371;42.686;23.362;2022-08-19T06:44:44;9.95;;;4.47;;
41687;SDS011;27371;42.686;23.362;2022-08-19T06:47:12;15.73;;;4.50;;
41687;SDS011;27371;42.686;23.362;2022-08-19T06:49:40;7.88;;;4.55;;
41687;SDS011;27371;42.686;23.362;2022-08-19T06:52:07;8.30;;;4.85;;
41687;SDS011;27371;42.686;23.362;2022-08-19T06:54:33;6.35;;;4.40;;
41687;SDS011;27371;42.686;23.362;2022-08-19T06:56:59;7.68;;;4.30;;
41687;SDS011;27371;42.686;23.362;2022-08-19T06:59:29;7.70;;;4.70;;
41687;SDS011;27371;42.686;23.362;2022-08-19T07:01:58;6.22;;;4.32;;
41687;SDS011;27371;42.686;23.362;2022-08-19T07:04:27;5.47;;;4.15;;
41687;SDS011;27371;42.686;23.362;2022-08-19T07:06:56;5.43;;;4.60;;
41687;SDS011;27371;42.686;23.362;2022-08-19T07:09:24;9.00;;;4.25;;
41687;SDS011;27371;42.686;23.362;2022-08-19T07:11:50;6.80;;;4.70;;
41687;SDS011;27371;42.686;23.362;2022-08-19T07:14:18;8.07;;;4.25;;
41687;SDS011;27371;42.686;23.362;2022-08-19T07:16:49;11.82;;;4.47;;
41687;SDS011;27371;42.686;23.362;2022-08-19T07:19:17;7.93;;;4.40;;
41687;SDS011;27371;42.686;23.362;2022-08-19T07:21:43;9.30;;;4.18;;
41687;SDS011;27371;42.686;23.362;2022-08-19T07:24:09;10.80;;;4.47;;
41687;SDS011;27371;42.686;23.362;2022-08-19T07:26:39;9.50;;;4.20;;
41687;SDS011;27371;42.686;23.362;2022-08-19T07:29:07;11.13;;;4.60;;
41687;SDS011;27371;42.686;23.362;2022-08-19T07:31:34;12.52;;;3.90;;
41687;SDS011;27371;42.686;23.362;2022-08-19T07:34:03;6.25;;;4.18;;
41687;SDS011;27371;42.686;23.362;2022-08-19T07:36:34;6.85;;;3.53;;
41687;SDS011;27371;42.686;23.362;2022-08-19T07:39:03;10.98;;;5.13;;
41687;SDS011;27371;42.686;23.362;2022-08-19T07:41:30;8.65;;;3.90;;
41687;SDS011;27371;42.686;23.362;2022-08-19T07:43:57;7.22;;;3.85;;
41687;SDS011;27371;42.686;23.362;2022-08-19T07:46:26;6.60;;;4.22;;
41687;SDS011;27371;42.686;23.362;2022-08-19T07:48:53;9.77;;;4.57;;
41687;SDS011;27371;42.686;23.362;2022-08-19T07:51:19;8.07;;;4.95;;
41687;SDS011;27371;42.686;23.362;2022-08-19T07:53:47;10.68;;;4.28;;
41687;SDS011;27371;42.686;23.362;2022-08-19T07:56:16;9.35;;;4.90;;
41687;SDS011;27371;42.686;23.362;2022-08-19T07:58:44;10.52;;;4.15;;
41687;SDS011;27371;42.686;23.362;2022-08-19T08:01:13;7.70;;;4.40;;
41687;SDS011;27371;42.686;23.362;2022-08-19T08:03:43;9.00;;;4.43;;
41687;SDS011;27371;42.686;23.362;2022-08-19T08:06:28;6.13;;;3.58;;
41687;SDS011;27371;42.686;23.362;2022-08-19T08:09:12;8.43;;;4.30;;
41687;SDS011;27371;42.686;23.362;2022-08-19T08:11:49;7.57;;;4.25;;
41687;SDS011;27371;42.686;23.362;2022-08-19T08:14:21;11.88;;;4.63;;
41687;SDS011;27371;42.686;23.362;2022-08-19T08:16:52;10.82;;;4.70;;
41687;SDS011;27371;42.686;23.362;2022-08-19T08:19:19;10.77;;;5.90;;
41687;SDS011;27371;42.686;23.362;2022-08-19T08:21:46;7.38;;;4.20;;
41687;SDS011;27371;42.686;23.362;2022-08-19T08:24:13;12.13;;;3.95;;
41687;SDS011;27371;42.686;23.362;2022-08-19T08:26:39;7.60;;;3.85;;
41687;SDS011;27371;42.686;23.362;2022-08-19T08:29:05;8.70;;;4.13;;
41687;SDS011;27371;42.686;23.362;2022-08-19T08:31:33;5.15;;;3.92;;
41687;SDS011;27371;42.686;23.362;2022-08-19T08:33:59;5.45;;;3.70;;
41687;SDS011;27371;42.686;23.362;2022-08-19T08:36:24;10.50;;;4.18;;
41687;SDS011;27371;42.686;23.362;2022-08-19T08:38:50;7.35;;;3.38;;
41687;SDS011;27371;42.686;23.362;2022-08-19T08:41:37;8.68;;;4.32;;
41687;SDS011;27371;42.686;23.362;2022-08-19T08:44:17;7.70;;;3.83;;
41687;SDS011;27371;42.686;23.362;2022-08-19T08:46:55;9.32;;;3.88;;
41687;SDS011;27371;42.686;23.362;2022-08-19T08:54:38;8.02;;;3.60;;
41687;SDS011;27371;42.686;23.362;2022-08-19T08:57:10;7.15;;;3.95;;
41687;SDS011;27371;42.686;23.362;2022-08-19T08:59:41;11.95;;;7.22;;
41687;SDS011;27371;42.686;23.362;2022-08-19T09:02:08;19.33;;;8.13;;
41687;SDS011;27371;42.686;23.362;2022-08-19T09:04:37;19.85;;;7.82;;
41687;SDS011;27371;42.686;23.362;2022-08-19T09:10:04;8.85;;;3.92;;
41687;SDS011;27371;42.686;23.362;2022-08-19T09:15:16;10.10;;;3.63;;
41687;SDS011;27371;42.686;23.362;2022-08-19T09:17:45;7.65;;;3.88;;
41687;SDS011;27371;42.686;23.362;2022-08-19T09:20:14;7.60;;;4.07;;
41687;SDS011;27371;42.686;23.362;2022-08-19T09:22:43;4.90;;;3.00;;
41687;SDS011;27371;42.686;23.362;2022-08-19T09:25:09;5.22;;;3.13;;
41687;SDS011;27371;42.686;23.362;2022-08-19T09:27:41;4.90;;;2.50;;
41687;SDS011;27371;42.686;23.362;2022-08-19T09:30:08;4.07;;;2.78;;
41687;SDS011;27371;42.686;23.362;2022-08-19T09:32:42;8.77;;;2.90;;
41687;SDS011;27371;42.686;23.362;2022-08-19T09:35:08;10.23;;;2.83;;
41687;SDS011;27371;42.686;23.362;2022-08-19T09:37:34;5.43;;;2.92;;
41687;SDS011;27371;42.686;23.362;2022-08-19T09:40:00;5.03;;;2.47;;
41687;SDS011;27371;42.686;23.362;2022-08-19T09:42:25;6.00;;;2.78;;
41687;SDS011;27371;42.686;23.362;2022-08-19T09:44:51;5.65;;;2.67;;
41687;SDS011;27371;42.686;23.362;2022-08-19T09:47:16;4.82;;;2.58;;
41687;SDS011;27371;42.686;23.362;2022-08-19T09:49:42;5.30;;;2.58;;
41687;SDS011;27371;42.686;23.362;2022-08-19T09:52:08;4.80;;;2.67;;
41687;SDS011;27371;42.686;23.362;2022-08-19T09:54:34;7.20;;;2.38;;
41687;SDS011;27371;42.686;23.362;2022-08-19T09:57:00;5.15;;;2.38;;
41687;SDS011;27371;42.686;23.362;2022-08-19T09:59:26;4.70;;;2.60;;
41687;SDS011;27371;42.686;23.362;2022-08-19T10:01:52;5.03;;;2.00;;
41687;SDS011;27371;42.686;23.362;2022-08-19T10:04:18;4.30;;;2.47;;
41687;SDS011;27371;42.686;23.362;2022-08-19T10:06:44;5.15;;;2.40;;
41687;SDS011;27371;42.686;23.362;2022-08-19T10:09:12;3.03;;;2.10;;
41687;SDS011;27371;42.686;23.362;2022-08-19T10:11:40;3.22;;;2.30;;
41687;SDS011;27371;42.686;23.362;2022-08-19T10:14:07;8.13;;;2.67;;
41687;SDS011;27371;42.686;23.362;2022-08-19T10:16:33;6.50;;;2.53;;
41687;SDS011;27371;42.686;23.362;2022-08-19T10:19:00;3.88;;;2.30;;
41687;SDS011;27371;42.686;23.362;2022-08-19T10:21:28;8.55;;;2.70;;
41687;SDS011;27371;42.686;23.362;2022-08-19T10:23:58;3.50;;;2.60;;
41687;SDS011;27371;42.686;23.362;2022-08-19T10:26:27;6.90;;;2.90;;
41687;SDS011;27371;42.686;23.362;2022-08-19T10:28:55;9.85;;;3.97;;
41687;SDS011;27371;42.686;23.362;2022-08-19T10:31:23;5.63;;;2.95;;
41687;SDS011;27371;42.686;23.362;2022-08-19T10:33:54;4.95;;;2.97;;
41687;SDS011;27371;42.686;23.362;2022-08-19T10:36:23;6.72;;;2.67;;
41687;SDS011;27371;42.686;23.362;2022-08-19T10:38:52;3.70;;;2.70;;
41687;SDS011;27371;42.686;23.362;2022-08-19T10:41:21;4.47;;;2.70;;
41687;SDS011;27371;42.686;23.362;2022-08-19T10:43:52;5.43;;;2.85;;
41687;SDS011;27371;42.686;23.362;2022-08-19T10:46:20;4.38;;;2.97;;
41687;SDS011;27371;42.686;23.362;2022-08-19T10:48:47;5.35;;;2.67;;
41687;SDS011;27371;42.686;23.362;2022-08-19T10:51:13;4.05;;;2.75;;
41687;SDS011;27371;42.686;23.362;2022-08-19T10:53:58;4.68;;;2.67;;
41687;SDS011;27371;42.686;23.362;2022-08-19T10:56:24;4.50;;;2.30;;
41687;SDS011;27371;42.686;23.362;2022-08-19T10:59:09;4.43;;;2.47;;
41687;SDS011;27371;42.686;23.362;2022-08-19T11:01:34;5.28;;;3.00;;
41687;SDS011;27371;42.686;23.362;2022-08-19T11:04:01;4.38;;;2.60;;
41687;SDS011;27371;42.686;23.362;2022-08-19T11:06:28;3.55;;;2.42;;
41687;SDS011;27371;42.686;23.362;2022-08-19T11:08:55;5.32;;;2.45;;
41687;SDS011;27371;42.686;23.362;2022-08-19T11:11:21;5.18;;;2.42;;
41687;SDS011;27371;42.686;23.362;2022-08-19T11:13:48;5.55;;;2.67;;
41687;SDS011;27371;42.686;23.362;2022-08-19T11:16:25;3.88;;;2.47;;
41687;SDS011;27371;42.686;23.362;2022-08-19T11:18:56;6.32;;;2.88;;
41687;SDS011;27371;42.686;23.362;2022-08-19T11:21:28;5.60;;;2.63;;
41687;SDS011;27371;42.686;23.362;2022-08-19T11:24:00;4.55;;;2.83;;
41687;SDS011;27371;42.686;23.362;2022-08-19T11:26:30;6.32;;;2.97;;
41687;SDS011;27371;42.686;23.362;2022-08-19T11:28:56;4.35;;;2.85;;
41687;SDS011;27371;42.686;23.362;2022-08-19T11:31:24;4.72;;;2.75;;
41687;SDS011;27371;42.686;23.362;2022-08-19T11:33:52;6.30;;;2.50;;
41687;SDS011;27371;42.686;23.362;2022-08-19T11:36:19;3.65;;;2.75;;
41687;SDS011;27371;42.686;23.362;2022-08-19T11:38:46;3.08;;;2.70;;
41687;SDS011;27371;42.686;23.362;2022-08-19T11:41:13;5.47;;;2.70;;
41687;SDS011;27371;42.686;23.362;2022-08-19T11:43:40;5.88;;;3.22;;
41687;SDS011;27371;42.686;23.362;2022-08-19T11:46:06;5.03;;;2.90;;
41687;SDS011;27371;42.686;23.362;2022-08-19T11:48:33;5.72;;;2.72;;
41687;SDS011;27371;42.686;23.362;2022-08-19T11:50:59;5.45;;;2.58;;
41687;SDS011;27371;42.686;23.362;2022-08-19T11:53:24;6.35;;;3.20;;
41687;SDS011;27371;42.686;23.362;2022-08-19T11:55:50;11.77;;;2.88;;
41687;SDS011;27371;42.686;23.362;2022-08-19T11:58:20;4.70;;;3.08;;
41687;SDS011;27371;42.686;23.362;2022-08-19T12:00:46;4.95;;;3.13;;
41687;SDS011;27371;42.686;23.362;2022-08-19T12:03:12;6.13;;;2.60;;
41687;SDS011;27371;42.686;23.362;2022-08-19T12:05:38;6.07;;;2.70;;
41687;SDS011;27371;42.686;23.362;2022-08-19T12:08:05;4.68;;;3.00;;
41687;SDS011;27371;42.686;23.362;2022-08-19T12:10:32;5.05;;;2.90;;
41687;SDS011;27371;42.686;23.362;2022-08-19T12:12:57;6.28;;;2.78;;
41687;SDS011;27371;42.686;23.362;2022-08-19T12:15:23;6.22;;;2.78;;
41687;SDS011;27371;42.686;23.362;2022-08-19T12:17:48;5.20;;;2.92;;
41687;SDS011;27371;42.686;23.362;2022-08-19T12:20:14;3.20;;;2.85;;
41687;SDS011;27371;42.686;23.362;2022-08-19T12:22:42;7.07;;;2.75;;
41687;SDS011;27371;42.686;23.362;2022-08-19T12:25:09;5.65;;;2.72;;
41687;SDS011;27371;42.686;23.362;2022-08-19T12:27:35;3.85;;;2.78;;
41687;SDS011;27371;42.686;23.362;2022-08-19T12:30:02;5.03;;;2.78;;
41687;SDS011;27371;42.686;23.362;2022-08-19T12:32:29;7.82;;;2.75;;
41687;SDS011;27371;42.686;23.362;2022-08-19T12:34:54;5.97;;;3.17;;
41687;SDS011;27371;42.686;23.362;2022-08-19T12:37:20;7.75;;;2.60;;
41687;SDS011;27371;42.686;23.362;2022-08-19T12:39:45;5.93;;;2.72;;
41687;SDS011;27371;42.686;23.362;2022-08-19T12:42:11;4.93;;;2.50;;
41687;SDS011;27371;42.686;23.362;2022-08-19T12:44:39;8.35;;;3.10;;
41687;SDS011;27371;42.686;23.362;2022-08-19T12:47:06;3.92;;;3.05;;
41687;SDS011;27371;42.686;23.362;2022-08-19T12:49:33;7.97;;;2.90;;
41687;SDS011;27371;42.686;23.362;2022-08-19T12:51:59;4.90;;;2.90;;
41687;SDS011;27371;42.686;23.362;2022-08-19T12:54:26;5.78;;;2.63;;
41687;SDS011;27371;42.686;23.362;2022-08-19T12:56:55;8.57;;;3.15;;
41687;SDS011;27371;42.686;23.362;2022-08-19T12:59:21;5.03;;;2.88;;
41687;SDS011;27371;42.686;23.362;2022-08-19T13:01:46;6.60;;;2.85;;
41687;SDS011;27371;42.686;23.362;2022-08-19T13:04:11;6.28;;;2.95;;
41687;SDS011;27371;42.686;23.362;2022-08-19T13:06:37;5.38;;;2.70;;
41687;SDS011;27371;42.686;23.362;2022-08-19T13:09:03;4.05;;;3.05;;
41687;SDS011;27371;42.686;23.362;2022-08-19T13:11:29;4.80;;;2.78;;
41687;SDS011;27371;42.686;23.362;2022-08-19T13:13:57;6.97;;;3.22;;
41687;SDS011;27371;42.686;23.362;2022-08-19T13:16:23;6.97;;;2.97;;
41687;SDS011;27371;42.686;23.362;2022-08-19T13:18:48;10.73;;;2.88;;
41687;SDS011;27371;42.686;23.362;2022-08-19T13:21:17;4.57;;;2.90;;
41687;SDS011;27371;42.686;23.362;2022-08-19T13:23:44;5.30;;;2.95;;
41687;SDS011;27371;42.686;23.362;2022-08-19T13:26:11;8.57;;;3.15;;
41687;SDS011;27371;42.686;23.362;2022-08-19T13:28:37;6.10;;;2.78;;
41687;SDS011;27371;42.686;23.362;2022-08-19T13:31:23;6.35;;;2.90;;
41687;SDS011;27371;42.686;23.362;2022-08-19T13:34:08;5.07;;;2.83;;
41687;SDS011;27371;42.686;23.362;2022-08-19T13:36:34;4.57;;;2.78;;
41687;SDS011;27371;42.686;23.362;2022-08-19T13:39:01;6.03;;;2.83;;
41687;SDS011;27371;42.686;23.362;2022-08-19T13:41:27;7.60;;;3.30;;
41687;SDS011;27371;42.686;23.362;2022-08-19T13:43:53;8.90;;;3.63;;
41687;SDS011;27371;42.686;23.362;2022-08-19T13:46:19;6.43;;;3.28;;
41687;SDS011;27371;42.686;23.362;2022-08-19T13:48:45;5.35;;;3.17;;
41687;SDS011;27371;42.686;23.362;2022-08-19T13:51:11;4.72;;;2.80;;
41687;SDS011;27371;42.686;23.362;2022-08-19T13:53:37;10.80;;;3.00;;
41687;SDS011;27371;42.686;23.362;2022-08-19T13:56:07;5.78;;;2.95;;
41687;SDS011;27371;42.686;23.362;2022-08-19T13:58:35;8.02;;;3.00;;
41687;SDS011;27371;42.686;23.362;2022-08-19T14:01:02;5.47;;;3.03;;
41687;SDS011;27371;42.686;23.362;2022-08-19T14:03:28;6.40;;;3.03;;
41687;SDS011;27371;42.686;23.362;2022-08-19T14:05:55;5.63;;;3.10;;
41687;SDS011;27371;42.686;23.362;2022-08-19T14:08:21;7.22;;;2.97;;
41687;SDS011;27371;42.686;23.362;2022-08-19T14:10:46;4.32;;;2.85;;
41687;SDS011;27371;42.686;23.362;2022-08-19T14:13:14;5.53;;;3.10;;
41687;SDS011;27371;42.686;23.362;2022-08-19T14:15:43;4.00;;;3.00;;
41687;SDS011;27371;42.686;23.362;2022-08-19T14:18:09;5.63;;;3.22;;
41687;SDS011;27371;42.686;23.362;2022-08-19T14:20:35;4.50;;;3.05;;
41687;SDS011;27371;42.686;23.362;2022-08-19T14:23:00;4.85;;;3.08;;
41687;SDS011;27371;42.686;23.362;2022-08-19T14:25:27;6.60;;;2.92;;
41687;SDS011;27371;42.686;23.362;2022-08-19T14:27:55;5.32;;;3.30;;
41687;SDS011;27371;42.686;23.362;2022-08-19T14:30:23;7.97;;;3.50;;
41687;SDS011;27371;42.686;23.362;2022-08-19T14:32:52;7.15;;;3.63;;
41687;SDS011;27371;42.686;23.362;2022-08-19T14:35:23;5.60;;;2.90;;
41687;SDS011;27371;42.686;23.362;2022-08-19T14:37:49;6.45;;;2.88;;
41687;SDS011;27371;42.686;23.362;2022-08-19T14:40:19;10.32;;;3.08;;
41687;SDS011;27371;42.686;23.362;2022-08-19T14:42:51;5.50;;;3.08;;
41687;SDS011;27371;42.686;23.362;2022-08-19T14:45:17;6.40;;;3.22;;
41687;SDS011;27371;42.686;23.362;2022-08-19T14:47:42;6.75;;;3.05;;
41687;SDS011;27371;42.686;23.362;2022-08-19T14:50:09;7.28;;;3.30;;